sensor_id;sensor_type;location;lat;lon;timestamp;P1;durP1;ratioP1;P2;durP2;ratioP2
51824;SDS011;37879;52.986;6.282;2022-09-30T00:00:00;3.47;;;2.30;;
51824;SDS011;37879;52.986;6.282;2022-09-30T00:02:26;4.05;;;3.03;;
51824;SDS011;37879;52.986;6.282;2022-09-30T00:04:53;3.65;;;2.53;;
51824;SDS011;37879;52.986;6.282;2022-09-30T00:07:19;5.38;;;2.88;;
51824;SDS011;37879;52.986;6.282;2022-09-30T00:09:45;4.10;;;2.40;;
51824;SDS011;37879;52.986;6.282;2022-09-30T00:12:12;3.20;;;2.40;;
51824;SDS011;37879;52.986;6.282;2022-09-30T00:14:38;4.47;;;2.78;;
51824;SDS011;37879;52.986;6.282;2022-09-30T00:17:04;5.13;;;2.80;;
51824;SDS011;37879;52.986;6.282;2022-09-30T00:19:30;3.53;;;2.72;;
51824;SDS011;37879;52.986;6.282;2022-09-30T00:21:56;4.57;;;3.33;;
51824;SDS011;37879;52.986;6.282;2022-09-30T00:24:22;5.20;;;3.30;;
51824;SDS011;37879;52.986;6.282;2022-09-30T00:26:48;5.35;;;2.92;;
51824;SDS011;37879;52.986;6.282;2022-09-30T00:29:15;5.13;;;3.35;;
51824;SDS011;37879;52.986;6.282;2022-09-30T00:31:41;7.05;;;3.65;;
51824;SDS011;37879;52.986;6.282;2022-09-30T00:34:07;4.88;;;3.45;;
51824;SDS011;37879;52.986;6.282;2022-09-30T00:39:08;7.57;;;3.20;;
51824;SDS011;37879;52.986;6.282;2022-09-30T00:41:36;7.25;;;3.97;;
51824;SDS011;37879;52.986;6.282;2022-09-30T00:44:37;4.82;;;3.13;;
51824;SDS011;37879;52.986;6.282;2022-09-30T00:46:48;6.32;;;3.35;;
51824;SDS011;37879;52.986;6.282;2022-09-30T00:49:18;4.15;;;2.88;;
51824;SDS011;37879;52.986;6.282;2022-09-30T00:51:48;5.40;;;3.15;;
51824;SDS011;37879;52.986;6.282;2022-09-30T00:54:16;4.43;;;3.05;;
51824;SDS011;37879;52.986;6.282;2022-09-30T00:56:45;4.70;;;3.05;;
51824;SDS011;37879;52.986;6.282;2022-09-30T00:59:15;5.15;;;3.00;;
51824;SDS011;37879;52.986;6.282;2022-09-30T01:01:42;14.65;;;4.60;;
51824;SDS011;37879;52.986;6.282;2022-09-30T01:04:13;5.18;;;2.92;;
51824;SDS011;37879;52.986;6.282;2022-09-30T01:06:40;8.25;;;2.47;;
51824;SDS011;37879;52.986;6.282;2022-09-30T01:09:06;5.68;;;3.03;;
51824;SDS011;37879;52.986;6.282;2022-09-30T01:11:32;4.82;;;3.08;;
51824;SDS011;37879;52.986;6.282;2022-09-30T01:13:59;3.67;;;2.80;;
51824;SDS011;37879;52.986;6.282;2022-09-30T01:24:48;3.65;;;2.58;;
51824;SDS011;37879;52.986;6.282;2022-09-30T01:30:33;3.67;;;2.35;;
51824;SDS011;37879;52.986;6.282;2022-09-30T01:41:04;4.37;;;2.50;;
51824;SDS011;37879;52.986;6.282;2022-09-30T01:43:35;3.42;;;2.30;;
51824;SDS011;37879;52.986;6.282;2022-09-30T01:51:12;9.57;;;3.10;;
51824;SDS011;37879;52.986;6.282;2022-09-30T01:53:44;9.52;;;2.70;;
51824;SDS011;37879;52.986;6.282;2022-09-30T01:56:15;6.00;;;2.67;;
51824;SDS011;37879;52.986;6.282;2022-09-30T02:01:37;7.43;;;2.40;;
51824;SDS011;37879;52.986;6.282;2022-09-30T02:04:06;5.47;;;2.13;;
51824;SDS011;37879;52.986;6.282;2022-09-30T02:06:34;4.13;;;2.45;;
51824;SDS011;37879;52.986;6.282;2022-09-30T02:09:04;4.53;;;2.03;;
51824;SDS011;37879;52.986;6.282;2022-09-30T02:11:32;11.43;;;3.17;;
51824;SDS011;37879;52.986;6.282;2022-09-30T02:16:39;8.63;;;2.40;;
51824;SDS011;37879;52.986;6.282;2022-09-30T02:19:18;2.40;;;1.60;;
51824;SDS011;37879;52.986;6.282;2022-09-30T02:21:46;2.33;;;1.58;;
51824;SDS011;37879;52.986;6.282;2022-09-30T02:24:15;5.65;;;2.50;;
51824;SDS011;37879;52.986;6.282;2022-09-30T02:26:43;6.57;;;3.00;;
51824;SDS011;37879;52.986;6.282;2022-09-30T02:31:38;4.20;;;2.03;;
51824;SDS011;37879;52.986;6.282;2022-09-30T02:34:18;2.85;;;2.10;;
51824;SDS011;37879;52.986;6.282;2022-09-30T02:37:00;2.28;;;1.48;;
51824;SDS011;37879;52.986;6.282;2022-09-30T02:39:30;1.52;;;1.15;;
51824;SDS011;37879;52.986;6.282;2022-09-30T02:42:05;1.70;;;1.20;;
51824;SDS011;37879;52.986;6.282;2022-09-30T02:44:34;2.53;;;1.60;;
51824;SDS011;37879;52.986;6.282;2022-09-30T02:50:14;3.97;;;1.52;;
51824;SDS011;37879;52.986;6.282;2022-09-30T02:58:17;2.97;;;1.92;;
51824;SDS011;37879;52.986;6.282;2022-09-30T03:00:45;3.92;;;2.10;;
51824;SDS011;37879;52.986;6.282;2022-09-30T03:03:16;4.65;;;2.67;;
51824;SDS011;37879;52.986;6.282;2022-09-30T03:05:43;3.50;;;2.40;;
51824;SDS011;37879;52.986;6.282;2022-09-30T03:08:10;4.13;;;2.60;;
51824;SDS011;37879;52.986;6.282;2022-09-30T03:10:36;5.25;;;2.28;;
51824;SDS011;37879;52.986;6.282;2022-09-30T03:15:44;4.97;;;2.63;;
51824;SDS011;37879;52.986;6.282;2022-09-30T03:20:58;4.20;;;2.25;;
51824;SDS011;37879;52.986;6.282;2022-09-30T03:26:01;9.63;;;2.10;;
51824;SDS011;37879;52.986;6.282;2022-09-30T03:43:26;18.60;;;3.10;;
51824;SDS011;37879;52.986;6.282;2022-09-30T03:48:20;2.58;;;2.25;;
51824;SDS011;37879;52.986;6.282;2022-09-30T03:50:47;4.10;;;2.90;;
51824;SDS011;37879;52.986;6.282;2022-09-30T03:53:13;4.60;;;2.30;;
51824;SDS011;37879;52.986;6.282;2022-09-30T03:55:47;4.90;;;1.70;;
51824;SDS011;37879;52.986;6.282;2022-09-30T03:58:15;4.33;;;2.17;;
51824;SDS011;37879;52.986;6.282;2022-09-30T04:00:44;6.38;;;2.50;;
51824;SDS011;37879;52.986;6.282;2022-09-30T04:03:11;4.40;;;2.10;;
51824;SDS011;37879;52.986;6.282;2022-09-30T04:05:37;4.82;;;2.00;;
51824;SDS011;37879;52.986;6.282;2022-09-30T04:08:03;4.50;;;2.38;;
51824;SDS011;37879;52.986;6.282;2022-09-30T04:10:29;18.60;;;3.05;;
51824;SDS011;37879;52.986;6.282;2022-09-30T04:12:55;8.75;;;2.85;;
51824;SDS011;37879;52.986;6.282;2022-09-30T04:15:22;11.23;;;3.00;;
51824;SDS011;37879;52.986;6.282;2022-09-30T04:17:48;19.52;;;3.58;;
51824;SDS011;37879;52.986;6.282;2022-09-30T04:20:14;19.17;;;2.92;;
51824;SDS011;37879;52.986;6.282;2022-09-30T04:22:40;10.32;;;2.35;;
51824;SDS011;37879;52.986;6.282;2022-09-30T04:25:07;5.03;;;2.72;;
51824;SDS011;37879;52.986;6.282;2022-09-30T04:27:33;14.35;;;3.22;;
51824;SDS011;37879;52.986;6.282;2022-09-30T04:29:59;8.80;;;2.65;;
51824;SDS011;37879;52.986;6.282;2022-09-30T04:32:28;5.80;;;2.38;;
51824;SDS011;37879;52.986;6.282;2022-09-30T04:34:54;6.22;;;2.33;;
51824;SDS011;37879;52.986;6.282;2022-09-30T04:37:20;4.45;;;2.33;;
51824;SDS011;37879;52.986;6.282;2022-09-30T04:39:47;6.93;;;2.30;;
51824;SDS011;37879;52.986;6.282;2022-09-30T04:42:13;2.97;;;2.13;;
51824;SDS011;37879;52.986;6.282;2022-09-30T04:44:42;3.03;;;2.38;;
51824;SDS011;37879;52.986;6.282;2022-09-30T04:47:09;3.03;;;2.10;;
51824;SDS011;37879;52.986;6.282;2022-09-30T04:49:35;2.92;;;2.42;;
51824;SDS011;37879;52.986;6.282;2022-09-30T04:52:01;2.70;;;2.20;;
51824;SDS011;37879;52.986;6.282;2022-09-30T04:54:27;3.13;;;2.17;;
51824;SDS011;37879;52.986;6.282;2022-09-30T04:56:53;2.45;;;1.80;;
51824;SDS011;37879;52.986;6.282;2022-09-30T04:59:19;2.75;;;1.88;;
51824;SDS011;37879;52.986;6.282;2022-09-30T05:01:45;4.55;;;3.05;;
51824;SDS011;37879;52.986;6.282;2022-09-30T05:04:11;6.40;;;4.68;;
51824;SDS011;37879;52.986;6.282;2022-09-30T05:06:37;4.22;;;3.10;;
51824;SDS011;37879;52.986;6.282;2022-09-30T05:09:06;4.95;;;3.33;;
51824;SDS011;37879;52.986;6.282;2022-09-30T05:11:32;4.28;;;3.03;;
51824;SDS011;37879;52.986;6.282;2022-09-30T05:13:59;3.70;;;2.80;;
51824;SDS011;37879;52.986;6.282;2022-09-30T05:16:25;4.38;;;3.00;;
51824;SDS011;37879;52.986;6.282;2022-09-30T05:18:52;8.32;;;2.78;;
51824;SDS011;37879;52.986;6.282;2022-09-30T05:21:18;20.63;;;3.80;;
51824;SDS011;37879;52.986;6.282;2022-09-30T05:23:45;15.27;;;3.63;;
51824;SDS011;37879;52.986;6.282;2022-09-30T05:26:11;12.95;;;3.75;;
51824;SDS011;37879;52.986;6.282;2022-09-30T05:28:38;7.32;;;3.25;;
51824;SDS011;37879;52.986;6.282;2022-09-30T05:31:04;7.95;;;3.60;;
51824;SDS011;37879;52.986;6.282;2022-09-30T05:33:31;6.72;;;3.22;;
51824;SDS011;37879;52.986;6.282;2022-09-30T05:35:58;6.03;;;3.40;;
51824;SDS011;37879;52.986;6.282;2022-09-30T05:38:24;13.30;;;3.80;;
51824;SDS011;37879;52.986;6.282;2022-09-30T05:40:51;7.25;;;3.58;;
51824;SDS011;37879;52.986;6.282;2022-09-30T05:43:17;5.65;;;3.40;;
51824;SDS011;37879;52.986;6.282;2022-09-30T05:45:50;6.80;;;3.30;;
51824;SDS011;37879;52.986;6.282;2022-09-30T05:48:16;9.27;;;3.55;;
51824;SDS011;37879;52.986;6.282;2022-09-30T05:50:42;6.93;;;3.40;;
51824;SDS011;37879;52.986;6.282;2022-09-30T05:53:14;21.70;;;4.88;;
51824;SDS011;37879;52.986;6.282;2022-09-30T05:55:43;13.80;;;4.38;;
51824;SDS011;37879;52.986;6.282;2022-09-30T05:58:10;27.17;;;4.78;;
51824;SDS011;37879;52.986;6.282;2022-09-30T06:00:38;10.38;;;4.63;;
51824;SDS011;37879;52.986;6.282;2022-09-30T06:03:04;13.05;;;4.88;;
51824;SDS011;37879;52.986;6.282;2022-09-30T06:05:30;11.65;;;4.60;;
51824;SDS011;37879;52.986;6.282;2022-09-30T06:07:56;16.00;;;4.53;;
51824;SDS011;37879;52.986;6.282;2022-09-30T06:10:22;20.10;;;4.75;;
51824;SDS011;37879;52.986;6.282;2022-09-30T06:12:48;9.05;;;3.90;;
51824;SDS011;37879;52.986;6.282;2022-09-30T06:15:15;15.02;;;4.97;;
51824;SDS011;37879;52.986;6.282;2022-09-30T06:17:42;12.52;;;5.13;;
51824;SDS011;37879;52.986;6.282;2022-09-30T06:20:08;8.35;;;5.10;;
51824;SDS011;37879;52.986;6.282;2022-09-30T06:22:35;9.50;;;4.53;;
51824;SDS011;37879;52.986;6.282;2022-09-30T06:25:04;5.15;;;3.88;;
51824;SDS011;37879;52.986;6.282;2022-09-30T06:27:34;7.75;;;4.57;;
51824;SDS011;37879;52.986;6.282;2022-09-30T06:30:02;6.75;;;4.20;;
51824;SDS011;37879;52.986;6.282;2022-09-30T06:32:29;5.32;;;3.50;;
51824;SDS011;37879;52.986;6.282;2022-09-30T06:34:55;6.13;;;4.15;;
51824;SDS011;37879;52.986;6.282;2022-09-30T06:37:21;6.88;;;4.20;;
51824;SDS011;37879;52.986;6.282;2022-09-30T06:39:48;6.05;;;4.90;;
51824;SDS011;37879;52.986;6.282;2022-09-30T06:42:15;7.47;;;4.70;;
51824;SDS011;37879;52.986;6.282;2022-09-30T06:44:41;8.80;;;4.93;;
51824;SDS011;37879;52.986;6.282;2022-09-30T06:47:08;9.85;;;5.47;;
51824;SDS011;37879;52.986;6.282;2022-09-30T06:49:35;9.23;;;5.18;;
51824;SDS011;37879;52.986;6.282;2022-09-30T06:52:01;10.35;;;4.78;;
51824;SDS011;37879;52.986;6.282;2022-09-30T06:54:28;8.25;;;5.07;;
51824;SDS011;37879;52.986;6.282;2022-09-30T06:56:54;54.95;;;10.35;;
51824;SDS011;37879;52.986;6.282;2022-09-30T06:59:25;33.42;;;7.38;;
51824;SDS011;37879;52.986;6.282;2022-09-30T07:01:51;49.88;;;10.98;;
51824;SDS011;37879;52.986;6.282;2022-09-30T07:04:17;56.28;;;8.52;;
51824;SDS011;37879;52.986;6.282;2022-09-30T07:06:43;21.13;;;6.35;;
51824;SDS011;37879;52.986;6.282;2022-09-30T07:09:10;30.90;;;7.43;;
51824;SDS011;37879;52.986;6.282;2022-09-30T07:11:37;26.60;;;6.93;;
51824;SDS011;37879;52.986;6.282;2022-09-30T07:14:03;34.88;;;7.30;;
51824;SDS011;37879;52.986;6.282;2022-09-30T07:16:29;34.92;;;7.18;;
51824;SDS011;37879;52.986;6.282;2022-09-30T07:18:56;37.45;;;7.40;;
51824;SDS011;37879;52.986;6.282;2022-09-30T07:21:24;37.40;;;7.28;;
51824;SDS011;37879;52.986;6.282;2022-09-30T07:23:50;35.88;;;6.80;;
51824;SDS011;37879;52.986;6.282;2022-09-30T07:26:21;40.22;;;6.70;;
51824;SDS011;37879;52.986;6.282;2022-09-30T07:28:48;57.63;;;9.27;;
51824;SDS011;37879;52.986;6.282;2022-09-30T07:31:15;26.38;;;6.43;;
51824;SDS011;37879;52.986;6.282;2022-09-30T07:33:42;30.52;;;6.35;;
51824;SDS011;37879;52.986;6.282;2022-09-30T07:36:08;78.30;;;10.80;;
51824;SDS011;37879;52.986;6.282;2022-09-30T07:38:36;88.72;;;12.10;;
51824;SDS011;37879;52.986;6.282;2022-09-30T07:41:03;51.25;;;9.43;;
51824;SDS011;37879;52.986;6.282;2022-09-30T07:43:31;73.78;;;9.98;;
51824;SDS011;37879;52.986;6.282;2022-09-30T07:46:08;127.93;;;16.30;;
51824;SDS011;37879;52.986;6.282;2022-09-30T07:48:35;104.90;;;14.70;;
51824;SDS011;37879;52.986;6.282;2022-09-30T07:51:02;70.50;;;9.52;;
51824;SDS011;37879;52.986;6.282;2022-09-30T07:53:28;87.03;;;13.20;;
51824;SDS011;37879;52.986;6.282;2022-09-30T07:55:54;109.45;;;15.68;;
51824;SDS011;37879;52.986;6.282;2022-09-30T07:58:20;108.47;;;15.13;;
51824;SDS011;37879;52.986;6.282;2022-09-30T08:00:47;82.80;;;12.50;;
51824;SDS011;37879;52.986;6.282;2022-09-30T08:03:16;109.15;;;17.23;;
51824;SDS011;37879;52.986;6.282;2022-09-30T08:05:42;69.45;;;13.00;;
51824;SDS011;37879;52.986;6.282;2022-09-30T08:08:13;30.65;;;8.75;;
51824;SDS011;37879;52.986;6.282;2022-09-30T08:10:39;54.05;;;10.65;;
51824;SDS011;37879;52.986;6.282;2022-09-30T08:13:05;28.55;;;7.60;;
51824;SDS011;37879;52.986;6.282;2022-09-30T08:15:32;57.00;;;9.70;;
51824;SDS011;37879;52.986;6.282;2022-09-30T08:17:58;93.30;;;16.50;;
51824;SDS011;37879;52.986;6.282;2022-09-30T08:20:26;72.60;;;12.13;;
51824;SDS011;37879;52.986;6.282;2022-09-30T08:22:55;79.72;;;14.25;;
51824;SDS011;37879;52.986;6.282;2022-09-30T08:25:22;60.63;;;13.55;;
51824;SDS011;37879;52.986;6.282;2022-09-30T08:27:49;66.68;;;12.40;;
51824;SDS011;37879;52.986;6.282;2022-09-30T08:30:15;55.75;;;13.90;;
51824;SDS011;37879;52.986;6.282;2022-09-30T08:32:42;32.70;;;10.52;;
51824;SDS011;37879;52.986;6.282;2022-09-30T08:35:08;50.10;;;12.43;;
51824;SDS011;37879;52.986;6.282;2022-09-30T08:37:34;35.45;;;11.02;;
51824;SDS011;37879;52.986;6.282;2022-09-30T08:40:00;18.83;;;9.45;;
51824;SDS011;37879;52.986;6.282;2022-09-30T08:42:30;22.52;;;11.30;;
51824;SDS011;37879;52.986;6.282;2022-09-30T08:45:11;18.13;;;9.57;;
51824;SDS011;37879;52.986;6.282;2022-09-30T09:04:23;14.10;;;10.50;;
51824;SDS011;37879;52.986;6.282;2022-09-30T09:17:20;12.90;;;10.10;;
51824;SDS011;37879;52.986;6.282;2022-09-30T09:19:52;14.80;;;10.02;;
51824;SDS011;37879;52.986;6.282;2022-09-30T09:22:21;16.90;;;11.00;;
51824;SDS011;37879;52.986;6.282;2022-09-30T09:24:49;12.60;;;9.23;;
51824;SDS011;37879;52.986;6.282;2022-09-30T09:27:17;12.75;;;9.82;;
51824;SDS011;37879;52.986;6.282;2022-09-30T09:32:16;11.60;;;9.48;;
51824;SDS011;37879;52.986;6.282;2022-09-30T09:34:43;12.13;;;9.98;;
51824;SDS011;37879;52.986;6.282;2022-09-30T09:37:21;10.57;;;8.45;;
51824;SDS011;37879;52.986;6.282;2022-09-30T09:40:11;10.38;;;7.00;;
51824;SDS011;37879;52.986;6.282;2022-09-30T09:47:41;9.13;;;6.60;;
51824;SDS011;37879;52.986;6.282;2022-09-30T09:53:08;8.90;;;6.28;;
51824;SDS011;37879;52.986;6.282;2022-09-30T09:55:38;8.15;;;6.60;;
51824;SDS011;37879;52.986;6.282;2022-09-30T09:58:11;8.02;;;5.35;;
51824;SDS011;37879;52.986;6.282;2022-09-30T10:00:38;7.03;;;5.53;;
51824;SDS011;37879;52.986;6.282;2022-09-30T10:05:37;7.30;;;5.40;;
51824;SDS011;37879;52.986;6.282;2022-09-30T10:10:46;6.05;;;5.43;;
51824;SDS011;37879;52.986;6.282;2022-09-30T10:13:40;7.03;;;5.32;;
51824;SDS011;37879;52.986;6.282;2022-09-30T10:15:59;6.72;;;5.00;;
51824;SDS011;37879;52.986;6.282;2022-09-30T10:24:28;7.35;;;5.20;;
51824;SDS011;37879;52.986;6.282;2022-09-30T10:26:54;7.00;;;4.43;;
51824;SDS011;37879;52.986;6.282;2022-09-30T10:29:24;9.00;;;5.45;;
51824;SDS011;37879;52.986;6.282;2022-09-30T10:31:51;8.10;;;5.50;;
51824;SDS011;37879;52.986;6.282;2022-09-30T10:34:25;9.68;;;5.47;;
51824;SDS011;37879;52.986;6.282;2022-09-30T10:41:59;6.07;;;4.35;;
51824;SDS011;37879;52.986;6.282;2022-09-30T10:44:26;6.57;;;3.92;;
51824;SDS011;37879;52.986;6.282;2022-09-30T10:46:57;6.03;;;3.72;;
51824;SDS011;37879;52.986;6.282;2022-09-30T10:49:28;4.70;;;3.25;;
51824;SDS011;37879;52.986;6.282;2022-09-30T10:51:56;4.68;;;3.55;;
51824;SDS011;37879;52.986;6.282;2022-09-30T10:57:02;3.78;;;2.80;;
51824;SDS011;37879;52.986;6.282;2022-09-30T10:59:33;5.15;;;3.83;;
51824;SDS011;37879;52.986;6.282;2022-09-30T11:02:03;5.53;;;3.30;;
51824;SDS011;37879;52.986;6.282;2022-09-30T11:04:33;6.65;;;2.95;;
51824;SDS011;37879;52.986;6.282;2022-09-30T11:07:02;4.57;;;3.47;;
51824;SDS011;37879;52.986;6.282;2022-09-30T11:09:39;6.35;;;3.50;;
51824;SDS011;37879;52.986;6.282;2022-09-30T11:12:18;4.95;;;2.88;;
51824;SDS011;37879;52.986;6.282;2022-09-30T11:14:50;4.28;;;2.47;;
51824;SDS011;37879;52.986;6.282;2022-09-30T11:22:33;4.38;;;2.72;;
51824;SDS011;37879;52.986;6.282;2022-09-30T11:25:00;3.35;;;2.03;;
51824;SDS011;37879;52.986;6.282;2022-09-30T11:27:37;3.72;;;2.38;;
51824;SDS011;37879;52.986;6.282;2022-09-30T11:30:08;4.72;;;2.35;;
51824;SDS011;37879;52.986;6.282;2022-09-30T11:35:15;2.72;;;1.70;;
51824;SDS011;37879;52.986;6.282;2022-09-30T11:40:29;2.70;;;1.40;;
51824;SDS011;37879;52.986;6.282;2022-09-30T11:58:17;1.90;;;1.27;;
51824;SDS011;37879;52.986;6.282;2022-09-30T12:00:46;2.63;;;1.77;;
51824;SDS011;37879;52.986;6.282;2022-09-30T12:03:19;4.57;;;1.77;;
51824;SDS011;37879;52.986;6.282;2022-09-30T12:05:50;3.55;;;1.52;;
51824;SDS011;37879;52.986;6.282;2022-09-30T12:08:41;3.50;;;1.60;;
51824;SDS011;37879;52.986;6.282;2022-09-30T12:11:15;3.42;;;1.40;;
51824;SDS011;37879;52.986;6.282;2022-09-30T12:13:43;1.88;;;1.40;;
51824;SDS011;37879;52.986;6.282;2022-09-30T12:16:20;2.80;;;1.50;;
51824;SDS011;37879;52.986;6.282;2022-09-30T12:18:50;3.75;;;1.65;;
51824;SDS011;37879;52.986;6.282;2022-09-30T12:21:35;2.85;;;1.40;;
51824;SDS011;37879;52.986;6.282;2022-09-30T12:24:08;1.55;;;1.10;;
51824;SDS011;37879;52.986;6.282;2022-09-30T12:26:39;2.03;;;1.40;;
51824;SDS011;37879;52.986;6.282;2022-09-30T12:29:07;2.22;;;1.45;;
51824;SDS011;37879;52.986;6.282;2022-09-30T12:42:21;2.00;;;1.25;;
51824;SDS011;37879;52.986;6.282;2022-09-30T12:47:48;3.25;;;1.75;;
51824;SDS011;37879;52.986;6.282;2022-09-30T12:50:17;2.88;;;1.95;;
51824;SDS011;37879;52.986;6.282;2022-09-30T12:52:43;2.75;;;1.60;;
51824;SDS011;37879;52.986;6.282;2022-09-30T12:57:49;2.75;;;1.83;;
51824;SDS011;37879;52.986;6.282;2022-09-30T13:00:17;4.93;;;1.35;;
51824;SDS011;37879;52.986;6.282;2022-09-30T13:03:04;2.55;;;1.50;;
51824;SDS011;37879;52.986;6.282;2022-09-30T13:10:30;4.70;;;2.40;;
51824;SDS011;37879;52.986;6.282;2022-09-30T13:25:53;4.15;;;3.33;;
51824;SDS011;37879;52.986;6.282;2022-09-30T13:30:46;9.27;;;3.75;;
51824;SDS011;37879;52.986;6.282;2022-09-30T13:36:16;3.92;;;3.08;;
51824;SDS011;37879;52.986;6.282;2022-09-30T13:38:43;4.03;;;3.28;;
51824;SDS011;37879;52.986;6.282;2022-09-30T13:43:43;4.40;;;3.03;;
51824;SDS011;37879;52.986;6.282;2022-09-30T13:46:26;3.25;;;2.33;;
51824;SDS011;37879;52.986;6.282;2022-09-30T13:48:55;4.30;;;2.67;;
51824;SDS011;37879;52.986;6.282;2022-09-30T13:51:23;5.05;;;2.92;;
51824;SDS011;37879;52.986;6.282;2022-09-30T13:53:54;5.95;;;3.22;;
51824;SDS011;37879;52.986;6.282;2022-09-30T13:56:22;3.58;;;2.63;;
51824;SDS011;37879;52.986;6.282;2022-09-30T14:06:50;5.03;;;1.83;;
51824;SDS011;37879;52.986;6.282;2022-09-30T14:17:33;5.13;;;2.42;;
51824;SDS011;37879;52.986;6.282;2022-09-30T14:20:08;4.55;;;2.70;;
51824;SDS011;37879;52.986;6.282;2022-09-30T14:22:39;3.90;;;2.78;;
51824;SDS011;37879;52.986;6.282;2022-09-30T14:25:12;3.97;;;2.42;;
51824;SDS011;37879;52.986;6.282;2022-09-30T14:30:41;2.30;;;2.10;;
51824;SDS011;37879;52.986;6.282;2022-09-30T14:33:30;2.80;;;2.28;;
51824;SDS011;37879;52.986;6.282;2022-09-30T14:36:01;2.80;;;2.10;;
51824;SDS011;37879;52.986;6.282;2022-09-30T14:38:30;5.43;;;2.30;;
51824;SDS011;37879;52.986;6.282;2022-09-30T14:40:59;4.07;;;2.75;;
51824;SDS011;37879;52.986;6.282;2022-09-30T14:43:32;6.50;;;2.30;;
51824;SDS011;37879;52.986;6.282;2022-09-30T14:46:45;3.30;;;2.13;;
51824;SDS011;37879;52.986;6.282;2022-09-30T14:48:47;3.05;;;2.33;;
51824;SDS011;37879;52.986;6.282;2022-09-30T14:51:14;2.97;;;1.85;;
